Time;durP1;ratioP1;P1;durP2;ratioP2;P2;SDS_P1;SDS_P2;PMS_P1;PMS_P2;Temp;Humidity;BMP_temperature;BMP_pressure;BME280_temperature;BME280_humidity;BME280_pressure;Samples;Min_cycle;Max_cycle;Signal;HPM_P1;HPM_P2
2021/01/24 00:02:02;;;;;;;8.20;4.13;;;;;;;-0.34;78.88;98717.97;4868966;29;20050;-73
2021/01/24 00:04:42;;;;;;;3.83;3.47;;;;;;;-0.36;78.84;98720.09;4870785;29;20024;-75
2021/01/24 00:07:10;;;;;;;3.03;2.83;;;;;;;-0.43;79.04;98708.66;4863873;29;20029;-73
2021/01/24 00:09:36;;;;;;;5.72;3.78;;;;;;;-0.54;79.44;98694.19;4892961;29;20031;-73
2021/01/24 00:12:40;;;;;;;9.70;3.92;;;;;;;-0.59;78.58;98694.91;4885461;29;20036;-73
2021/01/24 00:15:11;;;;;;;4.43;3.80;;;;;;;-0.48;78.93;98719.28;4896133;29;20119;-74
2021/01/24 00:17:37;;;;;;;6.57;3.65;;;;;;;-0.47;79.34;98727.09;4882927;29;20036;-73
2021/01/24 00:20:28;;;;;;;3.83;3.55;;;;;;;-0.49;79.42;98723.03;4888902;29;20028;-73
2021/01/24 00:22:53;;;;;;;6.60;3.72;;;;;;;-0.56;79.11;98717.78;4896239;29;20043;-73
2021/01/24 00:25:21;;;;;;;4.93;3.38;;;;;;;-0.69;79.55;98696.56;4898565;29;20020;-73
2021/01/24 00:27:47;;;;;;;6.57;2.80;;;;;;;-0.64;79.73;98713.59;4889939;29;20032;-74
2021/01/24 00:30:14;;;;;;;2.53;2.33;;;;;;;-0.83;79.27;98702.16;4894994;29;20352;-75
2021/01/24 00:32:39;;;;;;;2.95;2.75;;;;;;;-0.89;79.46;98706.59;4893172;29;20457;-73
2021/01/24 00:35:10;;;;;;;5.28;2.88;;;;;;;-0.94;79.45;98701.09;4889853;29;20035;-73
2021/01/24 00:37:36;;;;;;;2.50;2.28;;;;;;;-1.00;79.91;98696.66;4891933;29;20536;-73
2021/01/24 00:40:05;;;;;;;3.10;2.05;;;;;;;-1.16;79.80;98687.44;4889676;29;20028;-74
2021/01/24 00:42:30;;;;;;;4.38;2.95;;;;;;;-0.99;79.32;98730.50;4892987;29;20048;-72
2021/01/24 00:44:58;;;;;;;3.60;2.58;;;;;;;-1.04;79.83;98716.97;4892731;29;20052;-73
2021/01/24 00:47:23;;;;;;;4.95;3.67;;;;;;;-1.18;79.65;98711.00;4886853;29;20460;-75
2021/01/24 00:49:49;;;;;;;3.45;3.20;;;;;;;-1.28;80.11;98700.03;4893607;29;20039;-73
2021/01/24 00:52:17;;;;;;;3.63;3.38;;;;;;;-1.24;80.13;98712.75;4894915;29;20205;-74
2021/01/24 00:54:48;;;;;;;3.70;3.30;;;;;;;-1.25;79.97;98723.72;4890422;29;20044;-72
2021/01/24 00:57:16;;;;;;;3.00;2.80;;;;;;;-1.45;79.40;98699.88;4896576;29;20024;-74
2021/01/24 00:59:45;;;;;;;2.55;2.35;;;;;;;-1.38;80.08;98716.69;4872410;29;20447;-74
2021/01/24 01:02:19;;;;;;;2.05;1.50;;;;;;;-1.36;80.50;98719.13;4896455;29;20032;-74
2021/01/24 01:04:47;;;;;;;1.90;1.55;;;;;;;-1.36;80.45;98719.94;4894411;29;20062;-74
2021/01/24 01:07:13;;;;;;;3.45;2.00;;;;;;;-1.45;80.68;98702.56;4891302;29;20021;-73
2021/01/24 01:09:38;;;;;;;2.50;2.30;;;;;;;-1.45;80.59;98699.88;4888323;29;20044;-73
2021/01/24 01:12:05;;;;;;;6.38;3.42;;;;;;;-1.32;80.88;98710.38;4896672;29;20033;-74
2021/01/24 01:14:31;;;;;;;7.57;4.35;;;;;;;-1.30;81.08;98716.38;4895304;29;20032;-73
2021/01/24 01:16:56;;;;;;;6.68;3.78;;;;;;;-1.35;80.86;98705.50;4889350;29;20560;-74
2021/01/24 01:19:22;;;;;;;4.07;3.78;;;;;;;-1.32;80.87;98710.38;4896141;29;20538;-73
2021/01/24 01:21:50;;;;;;;7.22;3.40;;;;;;;-1.35;80.67;98708.19;4893217;29;20055;-73
2021/01/24 01:24:16;;;;;;;6.68;2.65;;;;;;;-1.33;81.29;98713.31;4896230;29;20017;-74
2021/01/24 01:26:42;;;;;;;4.85;4.13;;;;;;;-1.40;80.50;98702.69;4881335;29;20058;-74
2021/01/24 01:29:07;;;;;;;6.22;4.57;;;;;;;-1.32;80.59;98704.22;4878589;29;20033;-74
2021/01/24 01:31:32;;;;;;;4.93;3.80;;;;;;;-1.30;80.81;98702.94;4906883;29;20029;-73
2021/01/24 01:33:58;;;;;;;3.95;3.65;;;;;;;-1.30;80.94;98696.75;4903320;29;20032;-72
2021/01/24 01:36:23;;;;;;;2.50;2.38;;;;;;;-1.33;81.04;98690.00;4895822;29;20156;-73
2021/01/24 01:38:49;;;;;;;2.65;2.00;;;;;;;-1.30;80.74;98694.91;4890313;29;20590;-72
2021/01/24 01:41:14;;;;;;;1.60;1.50;;;;;;;-1.24;81.26;98693.16;4875046;29;20047;-74
2021/01/24 01:43:40;;;;;;;1.23;1.10;;;;;;;-1.19;81.36;98692.47;4894624;29;20048;-75
2021/01/24 01:46:05;;;;;;;1.20;1.10;;;;;;;-1.15;81.01;98693.66;4879731;29;20044;-73
2021/01/24 01:48:32;;;;;;;0.73;0.73;;;;;;;-1.12;81.19;98699.34;4895859;29;20061;-74
2021/01/24 01:50:58;;;;;;;1.40;1.27;;;;;;;-1.21;80.68;98671.25;4880488;29;20581;-74
2021/01/24 01:53:24;;;;;;;3.00;1.08;;;;;;;-1.12;81.09;98682.44;4895689;29;20044;-72
2021/01/24 01:55:49;;;;;;;0.85;0.85;;;;;;;-1.25;80.94;98652.09;4868802;29;20040;-73
2021/01/24 01:58:15;;;;;;;2.20;1.83;;;;;;;-1.07;80.92;98674.50;4885855;29;20032;-72
2021/01/24 02:00:41;;;;;;;6.80;4.10;;;;;;;-1.09;80.44;98680.09;4897432;29;20047;-76
2021/01/24 02:03:14;;;;;;;6.22;4.32;;;;;;;-1.09;80.48;98687.34;4891466;29;20059;-73
2021/01/24 02:05:54;;;;;;;5.22;4.45;;;;;;;-1.05;80.76;98693.88;4892650;29;20052;-74
2021/01/24 02:08:39;;;;;;;4.47;3.13;;;;;;;-1.12;80.86;98690.50;4892043;29;20455;-74
2021/01/24 02:11:50;;;;;;;1.70;1.60;;;;;;;-1.09;80.98;98682.78;4877669;29;20395;-76
2021/01/24 02:14:44;;;;;;;1.48;1.38;;;;;;;-1.00;81.18;98691.31;4904489;29;20306;-73
2021/01/24 02:17:17;;;;;;;1.83;1.10;;;;;;;-1.04;81.21;98684.75;4876882;29;20416;-74
2021/01/24 02:19:58;;;;;;;2.20;2.10;;;;;;;-0.93;81.13;98700.06;4893358;29;20426;-74
2021/01/24 02:22:28;;;;;;;2.30;1.45;;;;;;;-1.01;81.49;98680.81;4894590;29;20167;-73
2021/01/24 02:25:15;;;;;;;4.50;0.82;;;;;;;-0.88;81.05;98683.25;4892172;29;20534;-74
2021/01/24 02:27:59;;;;;;;4.40;0.88;;;;;;;-0.99;81.02;98650.00;4891853;29;21554;-73
2021/01/24 02:30:30;;;;;;;1.95;1.15;;;;;;;-0.83;81.09;98663.75;4885924;29;20436;-74
2021/01/24 02:33:09;;;;;;;2.08;1.00;;;;;;;-0.88;81.04;98643.84;4881800;29;20039;-73
2021/01/24 02:35:42;;;;;;;1.23;1.13;;;;;;;-0.69;81.02;98670.50;4895491;29;20092;-74
2021/01/24 02:38:09;;;;;;;1.73;1.10;;;;;;;-0.71;81.03;98651.97;4894654;29;21383;-73
2021/01/24 02:40:36;;;;;;;4.00;0.75;;;;;;;-0.69;81.14;98649.03;4889752;29;20037;-73
2021/01/24 02:43:05;;;;;;;3.50;0.73;;;;;;;-0.61;81.05;98656.75;4896626;29;20067;-73
2021/01/24 02:45:32;;;;;;;0.40;0.40;;;;;;;-0.60;81.08;98652.19;4888527;29;20029;-73
2021/01/24 02:47:59;;;;;;;0.60;0.60;;;;;;;-0.61;80.88;98640.63;4892146;29;20059;-73
2021/01/24 02:50:25;;;;;;;0.47;0.47;;;;;;;-0.52;80.85;98651.00;4895560;29;20025;-73
2021/01/24 02:52:51;;;;;;;0.40;0.40;;;;;;;-0.64;80.99;98630.38;4896044;29;20072;-74
2021/01/24 02:55:18;;;;;;;0.55;0.55;;;;;;;-0.57;80.59;98631.06;4899838;29;20064;-73
2021/01/24 02:57:43;;;;;;;0.32;0.30;;;;;;;-0.40;81.16;98657.97;4883289;29;20036;-73
2021/01/24 03:00:09;;;;;;;0.50;0.40;;;;;;;-0.36;81.16;98652.94;4897235;29;20483;-74
2021/01/24 03:02:36;;;;;;;1.77;0.85;;;;;;;-0.42;80.88;98637.78;4892447;29;20492;-74
2021/01/24 03:05:03;;;;;;;0.80;0.80;;;;;;;-0.32;80.89;98646.06;4899058;29;20041;-73
2021/01/24 03:07:30;;;;;;;0.77;0.77;;;;;;;-0.41;80.96;98623.28;4913280;29;20032;-74
2021/01/24 03:09:56;;;;;;;0.52;0.47;;;;;;;-0.39;80.86;98622.00;4907292;29;20032;-74
2021/01/24 03:12:25;;;;;;;0.50;0.50;;;;;;;-0.37;80.90;98619.88;4898925;29;20609;-74
2021/01/24 03:14:53;;;;;;;0.60;0.57;;;;;;;-0.22;80.72;98627.44;4878296;29;20460;-74
2021/01/24 03:17:21;;;;;;;0.80;0.70;;;;;;;-0.27;81.14;98607.72;4886539;29;20060;-74
2021/01/24 03:19:50;;;;;;;0.35;0.35;;;;;;;-0.22;80.76;98616.69;4869398;29;20029;-73
2021/01/24 03:22:18;;;;;;;2.67;0.77;;;;;;;-0.20;80.80;98614.56;4897816;29;20096;-73
2021/01/24 03:24:45;;;;;;;2.45;0.80;;;;;;;-0.16;81.20;98614.09;4891774;29;20029;-74
2021/01/24 03:27:11;;;;;;;0.30;0.30;;;;;;;-0.13;80.72;98609.06;4889591;29;20032;-73
2021/01/24 03:29:36;;;;;;;1.05;0.95;;;;;;;-0.08;80.85;98602.97;4880631;29;20048;-75
2021/01/24 03:32:04;;;;;;;0.30;0.30;;;;;;;0.13;81.06;98622.94;4891698;29;20055;-75
2021/01/24 03:34:32;;;;;;;0.40;0.40;;;;;;;0.12;80.49;98605.22;4901374;29;20116;-74
2021/01/24 03:36:58;;;;;;;0.22;0.17;;;;;;;0.08;80.83;98594.13;4871910;29;20033;-75
2021/01/24 03:39:27;;;;;;;0.30;0.20;;;;;;;0.19;80.42;98611.25;4881620;29;20072;-75
2021/01/24 03:41:52;;;;;;;0.40;0.30;;;;;;;0.27;80.56;98616.22;4879447;29;20124;-74
2021/01/24 03:44:18;;;;;;;0.70;0.68;;;;;;;0.22;80.49;98599.19;4845593;29;20153;-74
2021/01/24 03:46:43;;;;;;;0.60;0.60;;;;;;;0.26;80.54;98600.31;4873350;29;20041;-73
2021/01/24 03:49:11;;;;;;;0.38;0.38;;;;;;;0.29;80.08;98602.53;4880551;29;20035;-75
2021/01/24 03:51:36;;;;;;;0.70;0.52;;;;;;;0.32;80.66;98599.34;4848017;29;20129;-74
2021/01/24 03:54:04;;;;;;;5.57;1.42;;;;;;;0.40;79.99;98601.66;4873652;29;20037;-76
2021/01/24 03:56:30;;;;;;;3.88;1.95;;;;;;;0.41;80.57;98597.91;4867529;29;20048;-73
2021/01/24 03:58:55;;;;;;;2.20;2.10;;;;;;;0.39;79.52;98578.50;4866497;29;20040;-75
2021/01/24 04:01:21;;;;;;;3.33;2.30;;;;;;;0.46;80.09;98579.16;4873894;29;20603;-73
2021/01/24 04:03:46;;;;;;;2.08;1.98;;;;;;;0.36;80.00;98553.97;4881361;29;20043;-74
2021/01/24 04:06:11;;;;;;;2.33;1.25;;;;;;;0.47;79.10;98575.41;4857373;29;20043;-74
2021/01/24 04:08:37;;;;;;;2.03;1.42;;;;;;;0.40;79.86;98552.44;4854409;29;20048;-74
2021/01/24 04:11:03;;;;;;;3.47;1.40;;;;;;;0.38;79.04;98552.69;4876537;29;20089;-75
2021/01/24 04:13:28;;;;;;;1.33;1.23;;;;;;;0.46;79.48;98554.94;4859024;29;20065;-74
2021/01/24 04:15:54;;;;;;;3.45;1.27;;;;;;;0.44;79.80;98557.06;4879783;29;20051;-73
2021/01/24 04:18:20;;;;;;;0.82;0.82;;;;;;;0.46;79.78;98546.88;4855752;29;20382;-73
2021/01/24 04:20:46;;;;;;;0.85;0.85;;;;;;;0.44;79.72;98549.00;4884585;29;20040;-74
2021/01/24 04:23:11;;;;;;;0.55;0.43;;;;;;;0.38;79.70;98528.47;4881358;29;20096;-73
2021/01/24 04:25:37;;;;;;;0.55;0.55;;;;;;;0.38;80.17;98528.47;4871431;29;20116;-73
2021/01/24 04:28:02;;;;;;;2.25;0.45;;;;;;;0.42;80.44;98529.59;4869790;29;20082;-73
2021/01/24 04:30:28;;;;;;;0.50;0.50;;;;;;;0.48;79.69;98530.47;4879222;29;20036;-74
2021/01/24 04:32:54;;;;;;;0.70;0.70;;;;;;;0.54;80.49;98537.59;4874613;29;20047;-74
2021/01/24 04:35:20;;;;;;;0.57;0.40;;;;;;;0.54;79.24;98531.38;4890499;29;20464;-75
2021/01/24 04:37:45;;;;;;;0.20;0.20;;;;;;;0.43;80.31;98515.09;4866118;29;20029;-74
2021/01/24 04:40:11;;;;;;;0.63;0.63;;;;;;;0.61;80.14;98532.03;4889423;29;20057;-73
2021/01/24 04:42:39;;;;;;;4.20;1.08;;;;;;;0.62;79.17;98528.28;4910477;29;20044;-74
2021/01/24 04:45:07;;;;;;;1.02;1.02;;;;;;;0.56;79.84;98505.06;4902087;29;20029;-74
2021/01/24 04:47:33;;;;;;;1.23;0.93;;;;;;;0.49;79.13;98492.59;4878604;29;20048;-73
2021/01/24 04:50:00;;;;;;;0.77;0.50;;;;;;;0.65;79.87;98517.03;4897038;29;20025;-73
2021/01/24 04:52:26;;;;;;;1.55;0.60;;;;;;;0.61;79.91;98507.81;4903033;29;20054;-74
2021/01/24 04:54:52;;;;;;;0.80;0.80;;;;;;;0.59;79.93;98499.19;4898950;29;20036;-73
2021/01/24 04:57:19;;;;;;;5.60;1.52;;;;;;;0.69;78.79;98508.19;4901768;29;20032;-72
2021/01/24 04:59:44;;;;;;;4.38;1.40;;;;;;;0.71;79.30;98499.88;4876781;29;20040;-73
2021/01/24 05:02:13;;;;;;;2.65;1.40;;;;;;;0.72;79.44;98490.75;4895145;29;20051;-72
2021/01/24 05:04:38;;;;;;;2.38;1.52;;;;;;;0.70;78.96;98484.78;4895810;29;20076;-72
2021/01/24 05:07:03;;;;;;;1.95;1.85;;;;;;;0.72;78.58;98479.19;4893404;29;20131;-71
2021/01/24 05:09:29;;;;;;;2.10;1.90;;;;;;;0.66;79.41;98462.97;4858521;29;20114;-72
2021/01/24 05:11:55;;;;;;;2.38;2.08;;;;;;;0.81;79.07;98483.06;4874973;29;20032;-74
2021/01/24 05:14:25;;;;;;;2.15;1.98;;;;;;;0.74;78.29;98455.53;4892931;29;20056;-73
2021/01/24 05:16:55;;;;;;;1.58;1.48;;;;;;;0.74;79.18;98456.34;4897126;29;20119;-75
2021/01/24 05:19:21;;;;;;;3.00;2.70;;;;;;;0.85;78.41;98452.72;4869219;29;20054;-75
2021/01/24 05:21:48;;;;;;;1.70;1.50;;;;;;;0.99;77.93;98453.16;4894040;29;20084;-74
2021/01/24 05:24:19;;;;;;;2.45;2.25;;;;;;;1.00;78.25;98444.00;4896522;29;20047;-75
2021/01/24 05:26:48;;;;;;;3.30;2.78;;;;;;;1.01;78.70;98434.06;4886226;29;20028;-74
2021/01/24 05:29:25;;;;;;;2.30;2.20;;;;;;;1.03;77.66;98426.53;4892863;29;20028;-73
2021/01/24 05:31:52;;;;;;;3.15;2.33;;;;;;;1.04;78.15;98417.41;4895966;29;20028;-73
2021/01/24 05:34:25;;;;;;;3.05;1.95;;;;;;;1.09;77.71;98411.25;4893296;29;20158;-73
2021/01/24 05:36:50;;;;;;;2.15;1.95;;;;;;;1.23;78.45;98417.88;4886965;29;20063;-74
2021/01/24 05:39:16;;;;;;;9.63;2.30;;;;;;;1.27;77.85;98410.91;4890230;29;20080;-74
2021/01/24 05:41:49;;;;;;;4.97;2.45;;;;;;;1.30;77.76;98404.19;4879781;29;20456;-74
2021/01/24 05:44:17;;;;;;;3.58;2.33;;;;;;;1.24;76.75;98391.75;4897757;29;20321;-75
2021/01/24 05:46:43;;;;;;;3.15;2.53;;;;;;;1.24;77.11;98387.16;4891009;29;20029;-73
2021/01/24 05:49:11;;;;;;;2.60;1.95;;;;;;;1.31;76.85;98384.28;4872566;29;20032;-73
2021/01/24 05:51:37;;;;;;;5.97;2.92;;;;;;;1.29;77.42;98375.66;4894492;29;20088;-74
2021/01/24 05:54:03;;;;;;;2.50;2.30;;;;;;;1.39;77.00;98373.03;4893983;29;20036;-74
2021/01/24 05:56:29;;;;;;;3.22;2.20;;;;;;;1.36;77.14;98352.00;4881529;29;20040;-74
2021/01/24 05:59:07;;;;;;;1.58;1.48;;;;;;;1.41;77.35;98351.25;4899143;29;20028;-76
2021/01/24 06:01:33;;;;;;;2.30;2.20;;;;;;;1.46;77.68;98354.78;4892780;29;20555;-75
2021/01/24 06:03:59;;;;;;;4.18;2.65;;;;;;;1.46;77.25;98354.78;4887456;29;20032;-75
2021/01/24 06:06:26;;;;;;;6.68;3.53;;;;;;;1.51;76.80;98349.44;4896022;29;20036;-75
2021/01/24 06:08:51;;;;;;;2.58;2.38;;;;;;;1.59;76.60;98352.72;4893458;29;20056;-74
2021/01/24 06:11:19;;;;;;;6.53;2.47;;;;;;;1.65;77.22;98362.47;4892088;29;20419;-75
2021/01/24 06:13:51;;;;;;;4.85;2.55;;;;;;;1.68;75.89;98368.16;4895191;29;20379;-76
2021/01/24 06:16:34;;;;;;;5.07;2.38;;;;;;;1.71;75.23;98386.50;4889119;29;20032;-74
2021/01/24 06:19:10;;;;;;;1.70;1.60;;;;;;;1.61;75.96;98389.13;4893475;29;20059;-75
2021/01/24 06:22:03;;;;;;;2.85;2.00;;;;;;;1.52;76.01;98386.09;4898211;29;20036;-74
2021/01/24 06:24:36;;;;;;;0.85;0.85;;;;;;;1.40;75.77;98377.34;4901580;29;20032;-74
2021/01/24 06:27:06;;;;;;;0.73;0.70;;;;;;;1.31;77.01;98384.28;4896491;29;20032;-75
2021/01/24 06:29:32;;;;;;;2.22;1.05;;;;;;;1.22;77.60;98392.81;4877742;29;20044;-74
2021/01/24 06:32:03;;;;;;;1.33;0.90;;;;;;;1.28;77.50;98400.94;4873452;29;20052;-76
2021/01/24 06:34:42;;;;;;;0.50;0.40;;;;;;;1.21;78.79;98406.53;4870634;29;20032;-73
2021/01/24 06:37:19;;;;;;;0.25;0.08;;;;;;;1.07;78.57;98389.97;4877853;29;20025;-74
2021/01/24 06:39:56;;;;;;;1.35;0.38;;;;;;;0.95;79.98;98373.13;4859976;29;20037;-74
2021/01/24 06:43:00;;;;;;;0.52;0.52;;;;;;;1.00;79.87;98374.00;4898977;29;20029;-75
2021/01/24 06:45:28;;;;;;;0.55;0.30;;;;;;;1.03;80.02;98367.31;4804271;29;20035;-75
2021/01/24 06:47:54;;;;;;;0.15;0.15;;;;;;;0.95;80.30;98355.13;4864922;29;20128;-74
2021/01/24 06:50:49;;;;;;;0.20;0.20;;;;;;;1.03;81.52;98351.97;4885177;29;20057;-74
2021/01/24 06:53:17;;;;;;;0.43;0.43;;;;;;;1.04;81.46;98347.41;4881214;29;22300;-74
2021/01/24 06:55:56;;;;;;;0.65;0.30;;;;;;;1.02;82.57;98322.63;4896762;29;20079;-73
2021/01/24 06:58:25;;;;;;;1.33;0.55;;;;;;;1.06;81.64;98298.69;4884581;29;20035;-74
2021/01/24 07:00:51;;;;;;;0.28;0.28;;;;;;;1.17;82.18;98314.69;4895060;29;20488;-73
2021/01/24 07:03:18;;;;;;;0.40;0.40;;;;;;;1.23;81.73;98310.16;4883553;29;20084;-74
2021/01/24 07:05:44;;;;;;;1.30;0.90;;;;;;;1.34;82.11;98316.44;4890173;29;20559;-75
2021/01/24 07:08:28;;;;;;;0.35;0.35;;;;;;;1.36;81.40;98304.34;4889402;29;20213;-72
2021/01/24 07:10:56;;;;;;;1.80;1.10;;;;;;;1.45;82.81;98311.94;4874758;29;20471;-74
2021/01/24 07:13:29;;;;;;;1.17;0.90;;;;;;;1.47;81.64;98305.22;4896228;29;20653;-75
2021/01/24 07:15:56;;;;;;;3.25;1.63;;;;;;;1.40;82.54;98315.41;4885641;29;20456;-75
2021/01/24 07:18:22;;;;;;;1.52;1.33;;;;;;;1.40;81.79;98323.47;4888252;29;20033;-74
2021/01/24 07:20:51;;;;;;;1.75;1.55;;;;;;;1.36;81.73;98323.19;4872827;29;20536;-74
2021/01/24 07:23:17;;;;;;;1.13;1.13;;;;;;;1.40;82.01;98331.56;4877877;29;20025;-74
2021/01/24 07:25:43;;;;;;;1.48;1.33;;;;;;;1.42;82.30;98332.13;4881805;29;20025;-74
2021/01/24 07:28:11;;;;;;;0.82;0.82;;;;;;;1.52;82.40;98334.91;4884186;29;20108;-73
2021/01/24 07:30:40;;;;;;;1.95;0.60;;;;;;;1.50;82.63;98323.56;4887143;29;20384;-74
2021/01/24 07:33:07;;;;;;;1.00;0.98;;;;;;;1.59;82.17;98320.38;4891803;29;20040;-74
2021/01/24 07:35:36;;;;;;;2.38;1.08;;;;;;;1.44;81.96;98299.53;4889104;29;20588;-73
2021/01/24 07:38:03;;;;;;;1.35;1.30;;;;;;;1.55;82.90;98309.34;4894950;29;20058;-73
2021/01/24 07:40:29;;;;;;;0.45;0.40;;;;;;;1.67;83.32;98325.31;4881164;29;20599;-73
2021/01/24 07:43:01;;;;;;;1.30;1.00;;;;;;;1.66;82.50;98319.09;4861801;29;20132;-73
2021/01/24 07:45:29;;;;;;;0.70;0.70;;;;;;;1.70;82.81;98319.41;4891497;29;20411;-74
2021/01/24 07:47:54;;;;;;;1.00;1.00;;;;;;;1.77;83.45;98324.53;4891479;29;20040;-72
2021/01/24 07:50:19;;;;;;;0.98;0.90;;;;;;;1.70;82.86;98314.00;4890130;29;20040;-73
2021/01/24 07:52:49;;;;;;;0.47;0.47;;;;;;;1.76;82.60;98310.25;4898997;29;20096;-73
2021/01/24 07:55:15;;;;;;;0.52;0.52;;;;;;;1.72;82.41;98303.78;4888646;29;20077;-72
2021/01/24 07:57:40;;;;;;;0.50;0.50;;;;;;;1.84;83.16;98312.47;4893827;29;20028;-78
2021/01/24 08:00:07;;;;;;;0.50;0.50;;;;;;;1.88;83.07;98302.81;4895778;29;20060;-75
2021/01/24 08:02:33;;;;;;;0.52;0.52;;;;;;;1.90;83.39;98306.03;4883970;29;20444;-75
2021/01/24 08:05:03;;;;;;;0.70;0.70;;;;;;;1.84;83.07;98285.53;4894579;29;20119;-75
2021/01/24 08:07:29;;;;;;;0.60;0.60;;;;;;;1.97;82.24;98288.81;4895618;29;20463;-76
2021/01/24 08:09:57;;;;;;;0.40;0.40;;;;;;;1.85;82.97;98265.56;4894897;29;20219;-76
2021/01/24 08:12:25;;;;;;;0.80;0.57;;;;;;;2.01;83.58;98279.13;4877553;29;20479;-76
2021/01/24 08:14:50;;;;;;;0.40;0.40;;;;;;;1.92;82.60;98260.75;4898053;29;20032;-74
2021/01/24 08:17:19;;;;;;;0.60;0.45;;;;;;;2.01;82.37;98262.97;4878838;29;20059;-76
2021/01/24 08:19:45;;;;;;;0.20;0.20;;;;;;;2.06;82.37;98265.69;4892270;29;20029;-76
2021/01/24 08:22:11;;;;;;;0.65;0.65;;;;;;;2.14;82.92;98267.88;4898953;29;20050;-77
2021/01/24 08:24:37;;;;;;;0.88;0.88;;;;;;;2.29;82.27;98279.78;4890277;29;20408;-77
2021/01/24 08:27:04;;;;;;;0.77;0.77;;;;;;;2.27;82.10;98267.38;4902933;29;20104;-77
2021/01/24 08:29:34;;;;;;;0.80;0.80;;;;;;;2.29;82.79;98261.72;4901952;29;20043;-77
2021/01/24 08:32:04;;;;;;;0.30;0.30;;;;;;;2.37;83.34;98260.41;4864977;29;20527;-78
2021/01/24 08:34:32;;;;;;;0.40;0.40;;;;;;;2.46;82.22;98253.41;4894744;29;20116;-78
2021/01/24 08:37:00;;;;;;;0.50;0.43;;;;;;;2.51;82.70;98253.44;4898578;29;20032;-77
2021/01/24 08:39:30;;;;;;;0.47;0.47;;;;;;;2.64;82.78;98259.38;4877268;29;20044;-78
2021/01/24 08:41:56;;;;;;;0.70;0.70;;;;;;;2.58;82.29;98250.47;4890965;29;20043;-78
2021/01/24 08:44:22;;;;;;;0.93;0.93;;;;;;;2.73;82.30;98268.56;4882036;29;20571;-79
2021/01/24 08:46:52;;;;;;;0.68;0.68;;;;;;;2.76;82.84;98265.34;4894924;29;20067;-78
2021/01/24 08:49:59;;;;;;;;;;;;;;;;;;;;;
2021/01/24 08:52:27;;;;;;;0.30;0.30;;;;;;;2.73;82.54;98249.69;4902781;29;20107;-78
2021/01/24 08:55:00;;;;;;;0.40;0.40;;;;;;;2.88;82.80;98265.91;4893689;29;20037;-79
2021/01/24 08:57:32;;;;;;;1.02;0.82;;;;;;;2.92;82.72;98267.00;4901413;29;20033;-78
2021/01/24 09:00:00;;;;;;;0.55;0.55;;;;;;;2.87;82.25;98272.38;4893657;29;20039;-81
2021/01/24 09:02:34;;;;;;;0.60;0.60;;;;;;;2.83;82.82;98265.88;4901209;29;20142;-79
2021/01/24 09:05:05;;;;;;;0.45;0.45;;;;;;;2.86;82.96;98254.56;4908896;29;20444;-80
2021/01/24 09:07:37;;;;;;;0.50;0.30;;;;;;;3.05;83.15;98264.84;4891325;29;20029;-83
2021/01/24 09:10:14;;;;;;;0.40;0.40;;;;;;;3.30;83.39;98267.53;4881286;29;20047;-80
2021/01/24 09:12:43;;;;;;;0.90;0.60;;;;;;;3.36;82.83;98260.25;4880856;29;20048;-79
2021/01/24 09:15:12;;;;;;;1.50;0.30;;;;;;;3.56;82.64;98269.41;4903794;29;20106;-79
2021/01/24 09:17:40;;;;;;;1.30;1.02;;;;;;;3.74;82.26;98266.13;4907052;29;20133;-78
2021/01/24 09:20:09;;;;;;;1.30;0.60;;;;;;;3.77;82.71;98264.78;4905375;29;20012;-79
2021/01/24 09:22:34;;;;;;;0.40;0.40;;;;;;;3.80;82.11;98258.81;4905374;29;20029;-79
2021/01/24 09:27:45;;;;;;;0.32;0.30;;;;;;;3.97;82.60;98253.91;4885949;29;20075;-78
2021/01/24 09:30:20;;;;;;;0.60;0.60;;;;;;;4.13;82.21;98256.53;4900532;29;20431;-80
2021/01/24 09:32:46;;;;;;;1.05;0.35;;;;;;;4.17;81.99;98257.59;4882858;29;20039;-78
2021/01/24 09:35:13;;;;;;;0.98;0.98;;;;;;;4.27;82.03;98262.16;4897734;29;20045;-79
2021/01/24 09:37:39;;;;;;;2.33;2.00;;;;;;;4.29;81.02;98271.63;4896415;29;20044;-79
2021/01/24 09:40:06;;;;;;;1.27;1.00;;;;;;;4.19;81.31;98268.94;4903595;29;20048;-78
2021/01/24 09:42:31;;;;;;;2.00;1.90;;;;;;;4.18;80.35;98275.47;4885864;29;20073;-78
2021/01/24 09:44:57;;;;;;;0.90;0.90;;;;;;;4.06;80.57;98262.25;4899199;29;20440;-79
2021/01/24 09:47:25;;;;;;;0.93;0.93;;;;;;;4.16;80.79;98261.38;4906234;29;20088;-79
2021/01/24 09:49:54;;;;;;;1.40;1.30;;;;;;;4.37;81.37;98273.75;4888242;29;20199;-79
2021/01/24 09:52:19;;;;;;;0.60;0.60;;;;;;;4.68;81.42;98279.00;4893273;29;20028;-79
2021/01/24 09:54:45;;;;;;;3.08;2.88;;;;;;;4.97;80.12;98274.78;4924566;29;20125;-78
2021/01/24 09:57:10;;;;;;;1.10;1.10;;;;;;;5.24;80.20;98275.09;4902208;29;20031;-79
2021/01/24 09:59:35;;;;;;;1.05;1.05;;;;;;;5.61;80.20;98291.88;4888667;29;20061;-77
2021/01/24 10:02:01;;;;;;;2.42;0.68;;;;;;;5.83;79.71;98263.47;4909944;29;20111;-77
2021/01/24 10:04:26;;;;;;;0.38;0.38;;;;;;;6.11;79.56;98276.16;4864335;29;20119;-78
2021/01/24 10:06:54;;;;;;;0.25;0.20;;;;;;;6.25;78.66;98264.59;4886719;29;20040;-79
2021/01/24 10:09:21;;;;;;;0.20;0.10;;;;;;;6.31;78.92;98258.03;4886587;29;20012;-78
2021/01/24 10:11:47;;;;;;;0.47;0.43;;;;;;;6.60;78.62;98276.13;4897180;29;20053;-80
2021/01/24 10:14:22;;;;;;;;;;;;;;;;;;;;;
2021/01/24 10:16:48;;;;;;;1.15;1.05;;;;;;;6.89;77.78;98275.16;4898759;29;20047;-80
2021/01/24 10:19:18;;;;;;;1.55;1.45;;;;;;;6.88;75.81;98298.00;4901306;29;20037;-78
2021/01/24 10:21:54;;;;;;;;;;;;;;;;;;;;;
2021/01/24 10:24:19;;;;;;;2.40;2.20;;;;;;;6.24;74.61;98280.09;4920065;29;20051;-79
2021/01/24 10:26:45;;;;;;;1.85;1.75;;;;;;;6.19;73.15;98282.88;4919858;29;20036;-78
2021/01/24 10:29:14;;;;;;;1.75;1.65;;;;;;;6.17;73.40;98276.13;4901426;29;20044;-79
2021/01/24 10:31:40;;;;;;;2.38;2.10;;;;;;;6.29;72.97;98281.94;4909924;29;20104;-79
2021/01/24 10:34:06;;;;;;;1.52;1.42;;;;;;;6.54;73.33;98299.00;4917516;29;20071;-80
2021/01/24 10:36:39;;;;;;;1.52;1.48;;;;;;;6.61;72.66;98277.75;4915603;29;20237;-77
2021/01/24 10:39:05;;;;;;;1.20;1.17;;;;;;;7.02;73.32;98290.72;4915482;29;20073;-80
2021/01/24 10:41:32;;;;;;;1.17;1.02;;;;;;;7.19;70.96;98303.81;4886913;29;20173;-80
2021/01/24 10:43:59;;;;;;;1.50;1.45;;;;;;;7.07;69.27;98289.88;4914467;29;20044;-79
2021/01/24 10:46:24;;;;;;;0.85;0.85;;;;;;;6.72;68.11;98290.09;4856936;29;20036;-79
2021/01/24 10:49:01;;;;;;;1.65;1.55;;;;;;;6.24;69.01;98284.72;4903097;29;20024;-80
2021/01/24 10:51:34;;;;;;;1.23;1.23;;;;;;;5.84;70.34;98273.19;4899087;29;20042;-81
2021/01/24 10:54:12;;;;;;;1.08;1.08;;;;;;;5.61;71.39;98267.47;4880661;29;20047;-80
2021/01/24 10:57:05;;;;;;;;;;;;;;;;;;;;;
2021/01/24 10:59:31;;;;;;;0.98;0.98;;;;;;;5.72;73.48;98269.00;4917750;29;20044;-80
2021/01/24 11:01:58;;;;;;;0.50;0.50;;;;;;;6.04;74.03;98270.28;4917689;29;20035;-80
2021/01/24 11:04:30;;;;;;;0.43;0.40;;;;;;;6.38;74.36;98272.06;4919509;29;20016;-80
2021/01/24 11:06:55;;;;;;;0.30;0.30;;;;;;;6.79;73.75;98274.22;4925187;29;20037;-81
2021/01/24 11:09:22;;;;;;;0.55;0.55;;;;;;;7.18;73.40;98274.19;4916109;29;20024;-81
2021/01/24 11:11:50;;;;;;;1.02;1.02;;;;;;;7.60;71.90;98280.59;4884301;29;20028;-79
2021/01/24 11:14:18;;;;;;;1.58;1.48;;;;;;;8.01;71.36;98285.28;4904343;29;20031;-80
2021/01/24 11:16:43;;;;;;;1.27;1.20;;;;;;;8.19;70.66;98281.66;4900405;29;20028;-78
2021/01/24 11:19:11;;;;;;;1.83;1.73;;;;;;;8.39;68.52;98279.63;4902375;29;20027;-83
2021/01/24 11:21:36;;;;;;;1.60;1.50;;;;;;;8.57;68.78;98275.19;4900328;29;20039;-81
2021/01/24 11:24:02;;;;;;;2.85;1.48;;;;;;;9.00;68.90;98282.16;4884005;29;20096;-79
2021/01/24 11:26:32;;;;;;;1.55;1.45;;;;;;;9.28;66.57;98284.78;4881169;29;20036;-82
2021/01/24 11:28:58;;;;;;;1.70;1.60;;;;;;;9.35;63.50;98266.06;4895601;29;20039;-78
2021/01/24 11:31:25;;;;;;;0.88;0.88;;;;;;;9.23;64.14;98259.25;4901426;29;20021;-81
2021/01/24 11:33:53;;;;;;;1.30;1.20;;;;;;;8.95;63.94;98260.47;4906957;29;20057;-82
2021/01/24 11:36:18;;;;;;;1.02;0.70;;;;;;;8.64;63.13;98264.69;4900298;29;20027;-80
2021/01/24 11:38:44;;;;;;;0.68;0.68;;;;;;;8.30;63.56;98267.84;4894156;29;20020;-77
2021/01/24 11:41:10;;;;;;;0.80;0.50;;;;;;;7.85;62.97;98287.47;4914904;29;20036;-78
2021/01/24 11:43:35;;;;;;;0.60;0.60;;;;;;;7.29;63.53;98284.63;4915345;29;20029;-82
2021/01/24 11:46:01;;;;;;;0.63;0.63;;;;;;;6.62;64.48;98274.72;4878974;29;20028;-80
2021/01/24 11:48:35;;;;;;;3.10;0.75;;;;;;;6.16;65.98;98271.78;4887465;29;20016;-81
2021/01/24 11:51:03;;;;;;;0.65;0.57;;;;;;;6.13;67.19;98273.16;4923446;29;20019;-78
2021/01/24 11:53:28;;;;;;;0.40;0.40;;;;;;;6.27;65.69;98292.28;4933168;29;20017;-82
2021/01/24 11:55:54;;;;;;;0.20;0.20;;;;;;;6.01;66.45;98284.44;4885091;29;20040;-81